sensor_id;sensor_type;location;lat;lon;timestamp;P1;durP1;ratioP1;P2;durP2;ratioP2
35777;SDS011;21899;42.662;23.316;2023-05-10T00:01:39;13.98;;;8.73;;
35777;SDS011;21899;42.662;23.316;2023-05-10T00:04:05;15.23;;;9.88;;
35777;SDS011;21899;42.662;23.316;2023-05-10T00:06:31;15.88;;;9.40;;
35777;SDS011;21899;42.662;23.316;2023-05-10T00:08:57;14.48;;;9.75;;
35777;SDS011;21899;42.662;23.316;2023-05-10T00:11:22;14.98;;;9.82;;
35777;SDS011;21899;42.662;23.316;2023-05-10T00:13:48;14.48;;;10.18;;
35777;SDS011;21899;42.662;23.316;2023-05-10T00:16:13;15.02;;;9.85;;
35777;SDS011;21899;42.662;23.316;2023-05-10T00:18:39;14.82;;;9.73;;
35777;SDS011;21899;42.662;23.316;2023-05-10T00:21:05;14.10;;;9.65;;
35777;SDS011;21899;42.662;23.316;2023-05-10T00:23:31;12.32;;;9.52;;
35777;SDS011;21899;42.662;23.316;2023-05-10T00:25:56;14.60;;;9.88;;
35777;SDS011;21899;42.662;23.316;2023-05-10T00:28:21;14.65;;;9.70;;
35777;SDS011;21899;42.662;23.316;2023-05-10T00:30:47;15.25;;;10.10;;
35777;SDS011;21899;42.662;23.316;2023-05-10T00:33:12;15.13;;;10.93;;
35777;SDS011;21899;42.662;23.316;2023-05-10T00:35:38;16.23;;;10.40;;
35777;SDS011;21899;42.662;23.316;2023-05-10T00:38:03;16.95;;;11.50;;
35777;SDS011;21899;42.662;23.316;2023-05-10T00:40:29;16.20;;;11.63;;
35777;SDS011;21899;42.662;23.316;2023-05-10T00:42:55;14.27;;;10.07;;
35777;SDS011;21899;42.662;23.316;2023-05-10T00:45:21;16.52;;;10.77;;
35777;SDS011;21899;42.662;23.316;2023-05-10T00:47:47;18.30;;;11.95;;
35777;SDS011;21899;42.662;23.316;2023-05-10T00:50:13;14.93;;;11.05;;
35777;SDS011;21899;42.662;23.316;2023-05-10T00:52:39;17.95;;;12.10;;
35777;SDS011;21899;42.662;23.316;2023-05-10T00:55:06;15.85;;;11.57;;
35777;SDS011;21899;42.662;23.316;2023-05-10T00:57:31;16.20;;;12.07;;
35777;SDS011;21899;42.662;23.316;2023-05-10T00:59:57;16.08;;;11.52;;
35777;SDS011;21899;42.662;23.316;2023-05-10T01:02:24;15.38;;;10.60;;
35777;SDS011;21899;42.662;23.316;2023-05-10T01:04:50;16.85;;;11.27;;
35777;SDS011;21899;42.662;23.316;2023-05-10T01:07:16;15.32;;;11.27;;
35777;SDS011;21899;42.662;23.316;2023-05-10T01:09:42;17.90;;;10.63;;
35777;SDS011;21899;42.662;23.316;2023-05-10T01:12:07;17.17;;;11.65;;
35777;SDS011;21899;42.662;23.316;2023-05-10T01:14:33;18.08;;;12.13;;
35777;SDS011;21899;42.662;23.316;2023-05-10T01:17:01;15.48;;;11.32;;
35777;SDS011;21899;42.662;23.316;2023-05-10T01:19:29;17.50;;;11.85;;
35777;SDS011;21899;42.662;23.316;2023-05-10T01:38:01;14.15;;;9.95;;
35777;SDS011;21899;42.662;23.316;2023-05-10T01:40:42;12.25;;;9.00;;
35777;SDS011;21899;42.662;23.316;2023-05-10T01:43:26;11.43;;;8.77;;
35777;SDS011;21899;42.662;23.316;2023-05-10T01:46:02;9.05;;;7.10;;
35777;SDS011;21899;42.662;23.316;2023-05-10T01:48:47;10.07;;;7.78;;
35777;SDS011;21899;42.662;23.316;2023-05-10T01:51:17;11.43;;;7.50;;
35777;SDS011;21899;42.662;23.316;2023-05-10T01:53:49;12.10;;;7.55;;
35777;SDS011;21899;42.662;23.316;2023-05-10T01:56:19;12.57;;;7.57;;
35777;SDS011;21899;42.662;23.316;2023-05-10T01:58:50;9.32;;;6.85;;
35777;SDS011;21899;42.662;23.316;2023-05-10T02:01:17;9.93;;;7.00;;
35777;SDS011;21899;42.662;23.316;2023-05-10T02:03:45;9.30;;;6.95;;
35777;SDS011;21899;42.662;23.316;2023-05-10T02:06:12;9.50;;;6.88;;
35777;SDS011;21899;42.662;23.316;2023-05-10T02:08:41;8.27;;;6.68;;
35777;SDS011;21899;42.662;23.316;2023-05-10T02:11:08;9.25;;;6.78;;
35777;SDS011;21899;42.662;23.316;2023-05-10T02:13:37;9.48;;;7.10;;
35777;SDS011;21899;42.662;23.316;2023-05-10T02:16:04;7.78;;;5.93;;
35777;SDS011;21899;42.662;23.316;2023-05-10T02:18:31;7.38;;;5.20;;
35777;SDS011;21899;42.662;23.316;2023-05-10T02:20:58;8.05;;;6.45;;
35777;SDS011;21899;42.662;23.316;2023-05-10T02:23:25;9.10;;;6.10;;
35777;SDS011;21899;42.662;23.316;2023-05-10T02:25:51;9.43;;;5.43;;
35777;SDS011;21899;42.662;23.316;2023-05-10T02:28:19;10.75;;;5.22;;
35777;SDS011;21899;42.662;23.316;2023-05-10T02:30:48;6.57;;;5.18;;
35777;SDS011;21899;42.662;23.316;2023-05-10T02:33:14;8.93;;;4.85;;
35777;SDS011;21899;42.662;23.316;2023-05-10T02:35:40;9.35;;;5.40;;
35777;SDS011;21899;42.662;23.316;2023-05-10T02:38:06;7.88;;;5.28;;
35777;SDS011;21899;42.662;23.316;2023-05-10T02:40:34;8.23;;;4.78;;
35777;SDS011;21899;42.662;23.316;2023-05-10T02:43:01;11.07;;;5.80;;
35777;SDS011;21899;42.662;23.316;2023-05-10T02:45:30;8.55;;;5.35;;
35777;SDS011;21899;42.662;23.316;2023-05-10T02:47:57;11.85;;;5.15;;
35777;SDS011;21899;42.662;23.316;2023-05-10T02:50:25;9.43;;;5.35;;
35777;SDS011;21899;42.662;23.316;2023-05-10T02:52:54;9.38;;;5.45;;
35777;SDS011;21899;42.662;23.316;2023-05-10T02:55:25;11.93;;;6.28;;
35777;SDS011;21899;42.662;23.316;2023-05-10T02:57:54;12.75;;;6.55;;
35777;SDS011;21899;42.662;23.316;2023-05-10T03:00:24;11.25;;;6.88;;
35777;SDS011;21899;42.662;23.316;2023-05-10T03:02:50;13.35;;;6.47;;
35777;SDS011;21899;42.662;23.316;2023-05-10T03:05:15;9.93;;;6.80;;
35777;SDS011;21899;42.662;23.316;2023-05-10T03:07:40;8.20;;;5.45;;
35777;SDS011;21899;42.662;23.316;2023-05-10T03:10:06;10.82;;;7.32;;
35777;SDS011;21899;42.662;23.316;2023-05-10T03:15:22;9.02;;;5.45;;
35777;SDS011;21899;42.662;23.316;2023-05-10T03:18:21;11.88;;;6.88;;
35777;SDS011;21899;42.662;23.316;2023-05-10T03:21:03;11.20;;;6.18;;
35777;SDS011;21899;42.662;23.316;2023-05-10T03:26:06;11.10;;;5.90;;
35777;SDS011;21899;42.662;23.316;2023-05-10T03:28:33;7.93;;;5.15;;
35777;SDS011;21899;42.662;23.316;2023-05-10T03:31:00;9.55;;;5.53;;
35777;SDS011;21899;42.662;23.316;2023-05-10T03:33:27;10.50;;;6.30;;
35777;SDS011;21899;42.662;23.316;2023-05-10T03:35:53;10.18;;;6.10;;
35777;SDS011;21899;42.662;23.316;2023-05-10T03:38:18;10.65;;;5.78;;
35777;SDS011;21899;42.662;23.316;2023-05-10T03:40:43;8.10;;;5.15;;
35777;SDS011;21899;42.662;23.316;2023-05-10T03:43:09;10.70;;;5.65;;
35777;SDS011;21899;42.662;23.316;2023-05-10T03:45:34;10.95;;;5.93;;
35777;SDS011;21899;42.662;23.316;2023-05-10T03:48:00;10.43;;;5.97;;
35777;SDS011;21899;42.662;23.316;2023-05-10T03:50:26;11.50;;;5.55;;
35777;SDS011;21899;42.662;23.316;2023-05-10T03:52:51;9.23;;;4.82;;
35777;SDS011;21899;42.662;23.316;2023-05-10T03:55:17;8.02;;;5.20;;
35777;SDS011;21899;42.662;23.316;2023-05-10T03:57:42;7.85;;;5.20;;
35777;SDS011;21899;42.662;23.316;2023-05-10T04:00:08;8.23;;;4.93;;
35777;SDS011;21899;42.662;23.316;2023-05-10T04:02:34;8.57;;;5.43;;
35777;SDS011;21899;42.662;23.316;2023-05-10T04:05:00;9.20;;;5.50;;
35777;SDS011;21899;42.662;23.316;2023-05-10T04:07:26;8.20;;;4.88;;
35777;SDS011;21899;42.662;23.316;2023-05-10T04:09:51;9.85;;;4.75;;
35777;SDS011;21899;42.662;23.316;2023-05-10T04:12:17;8.60;;;5.30;;
35777;SDS011;21899;42.662;23.316;2023-05-10T04:14:42;11.57;;;5.72;;
35777;SDS011;21899;42.662;23.316;2023-05-10T04:17:08;6.80;;;4.57;;
35777;SDS011;21899;42.662;23.316;2023-05-10T04:19:33;10.38;;;5.00;;
35777;SDS011;21899;42.662;23.316;2023-05-10T04:21:59;6.90;;;4.93;;
35777;SDS011;21899;42.662;23.316;2023-05-10T04:24:24;8.48;;;5.07;;
35777;SDS011;21899;42.662;23.316;2023-05-10T04:26:50;8.27;;;5.70;;
35777;SDS011;21899;42.662;23.316;2023-05-10T04:29:16;7.03;;;4.82;;
35777;SDS011;21899;42.662;23.316;2023-05-10T04:31:41;8.13;;;5.00;;
35777;SDS011;21899;42.662;23.316;2023-05-10T04:34:07;8.98;;;5.65;;
35777;SDS011;21899;42.662;23.316;2023-05-10T04:36:32;10.95;;;6.28;;
35777;SDS011;21899;42.662;23.316;2023-05-10T04:39:00;9.15;;;5.50;;
35777;SDS011;21899;42.662;23.316;2023-05-10T04:41:26;10.43;;;5.65;;
35777;SDS011;21899;42.662;23.316;2023-05-10T04:43:51;7.90;;;4.90;;
35777;SDS011;21899;42.662;23.316;2023-05-10T04:46:16;9.35;;;5.97;;
35777;SDS011;21899;42.662;23.316;2023-05-10T04:48:42;9.75;;;6.20;;
35777;SDS011;21899;42.662;23.316;2023-05-10T04:51:07;9.00;;;6.40;;
35777;SDS011;21899;42.662;23.316;2023-05-10T04:53:33;11.30;;;5.93;;
35777;SDS011;21899;42.662;23.316;2023-05-10T04:55:58;14.77;;;6.60;;
35777;SDS011;21899;42.662;23.316;2023-05-10T04:58:24;8.52;;;5.70;;
35777;SDS011;21899;42.662;23.316;2023-05-10T05:00:50;8.88;;;5.57;;
35777;SDS011;21899;42.662;23.316;2023-05-10T05:03:15;8.45;;;6.03;;
35777;SDS011;21899;42.662;23.316;2023-05-10T05:05:40;13.35;;;6.32;;
35777;SDS011;21899;42.662;23.316;2023-05-10T05:08:06;11.23;;;6.18;;
35777;SDS011;21899;42.662;23.316;2023-05-10T05:10:31;8.60;;;6.03;;
35777;SDS011;21899;42.662;23.316;2023-05-10T05:12:57;11.43;;;6.07;;
35777;SDS011;21899;42.662;23.316;2023-05-10T05:15:22;11.25;;;6.30;;
35777;SDS011;21899;42.662;23.316;2023-05-10T05:17:48;9.13;;;5.68;;
35777;SDS011;21899;42.662;23.316;2023-05-10T05:20:13;10.05;;;5.82;;
35777;SDS011;21899;42.662;23.316;2023-05-10T05:22:39;9.80;;;6.55;;
35777;SDS011;21899;42.662;23.316;2023-05-10T05:25:05;11.88;;;6.03;;
35777;SDS011;21899;42.662;23.316;2023-05-10T05:27:31;11.20;;;6.68;;
35777;SDS011;21899;42.662;23.316;2023-05-10T05:29:56;11.73;;;7.07;;
35777;SDS011;21899;42.662;23.316;2023-05-10T05:32:22;9.95;;;6.20;;
35777;SDS011;21899;42.662;23.316;2023-05-10T05:34:49;9.40;;;6.60;;
35777;SDS011;21899;42.662;23.316;2023-05-10T05:37:14;13.60;;;6.57;;
35777;SDS011;21899;42.662;23.316;2023-05-10T05:39:41;12.18;;;6.38;;
35777;SDS011;21899;42.662;23.316;2023-05-10T05:42:07;12.07;;;7.07;;
35777;SDS011;21899;42.662;23.316;2023-05-10T05:44:33;10.70;;;6.75;;
35777;SDS011;21899;42.662;23.316;2023-05-10T05:46:59;9.95;;;6.70;;
35777;SDS011;21899;42.662;23.316;2023-05-10T05:49:24;13.15;;;9.40;;
35777;SDS011;21899;42.662;23.316;2023-05-10T05:51:50;12.45;;;8.32;;
35777;SDS011;21899;42.662;23.316;2023-05-10T05:54:15;13.55;;;8.55;;
35777;SDS011;21899;42.662;23.316;2023-05-10T05:56:41;13.07;;;8.35;;
35777;SDS011;21899;42.662;23.316;2023-05-10T05:59:06;15.48;;;8.40;;
35777;SDS011;21899;42.662;23.316;2023-05-10T06:01:32;14.15;;;9.10;;
35777;SDS011;21899;42.662;23.316;2023-05-10T06:03:57;13.45;;;8.65;;
35777;SDS011;21899;42.662;23.316;2023-05-10T06:06:22;18.33;;;8.82;;
35777;SDS011;21899;42.662;23.316;2023-05-10T06:08:48;14.98;;;9.82;;
35777;SDS011;21899;42.662;23.316;2023-05-10T06:11:13;16.60;;;9.57;;
35777;SDS011;21899;42.662;23.316;2023-05-10T06:13:38;14.77;;;10.13;;
35777;SDS011;21899;42.662;23.316;2023-05-10T06:16:04;13.00;;;8.68;;
35777;SDS011;21899;42.662;23.316;2023-05-10T06:18:30;15.57;;;9.68;;
35777;SDS011;21899;42.662;23.316;2023-05-10T06:20:55;13.65;;;8.82;;
35777;SDS011;21899;42.662;23.316;2023-05-10T06:23:21;15.00;;;9.98;;
35777;SDS011;21899;42.662;23.316;2023-05-10T06:25:47;16.67;;;10.10;;
35777;SDS011;21899;42.662;23.316;2023-05-10T06:28:12;14.82;;;9.98;;
35777;SDS011;21899;42.662;23.316;2023-05-10T06:30:38;17.33;;;9.73;;
35777;SDS011;21899;42.662;23.316;2023-05-10T06:33:03;15.60;;;9.93;;
35777;SDS011;21899;42.662;23.316;2023-05-10T06:35:29;18.27;;;9.35;;
35777;SDS011;21899;42.662;23.316;2023-05-10T06:37:54;14.68;;;9.13;;
35777;SDS011;21899;42.662;23.316;2023-05-10T06:40:20;15.25;;;9.70;;
35777;SDS011;21899;42.662;23.316;2023-05-10T06:42:46;16.00;;;8.90;;
35777;SDS011;21899;42.662;23.316;2023-05-10T06:45:13;12.90;;;8.95;;
35777;SDS011;21899;42.662;23.316;2023-05-10T06:47:39;14.55;;;9.95;;
35777;SDS011;21899;42.662;23.316;2023-05-10T06:50:06;47.85;;;17.10;;
35777;SDS011;21899;42.662;23.316;2023-05-10T06:52:36;16.83;;;10.38;;
35777;SDS011;21899;42.662;23.316;2023-05-10T06:55:02;13.70;;;9.40;;
35777;SDS011;21899;42.662;23.316;2023-05-10T06:57:28;14.43;;;10.13;;
35777;SDS011;21899;42.662;23.316;2023-05-10T06:59:54;14.82;;;9.00;;
35777;SDS011;21899;42.662;23.316;2023-05-10T07:02:21;12.93;;;8.75;;
35777;SDS011;21899;42.662;23.316;2023-05-10T07:04:47;19.77;;;9.52;;
35777;SDS011;21899;42.662;23.316;2023-05-10T07:07:13;13.88;;;8.60;;
35777;SDS011;21899;42.662;23.316;2023-05-10T07:09:39;14.50;;;9.05;;
35777;SDS011;21899;42.662;23.316;2023-05-10T07:12:05;15.38;;;9.60;;
35777;SDS011;21899;42.662;23.316;2023-05-10T07:14:30;20.13;;;10.07;;
35777;SDS011;21899;42.662;23.316;2023-05-10T07:16:55;15.65;;;9.07;;
35777;SDS011;21899;42.662;23.316;2023-05-10T07:19:21;17.33;;;10.75;;
35777;SDS011;21899;42.662;23.316;2023-05-10T07:21:46;21.60;;;10.70;;
35777;SDS011;21899;42.662;23.316;2023-05-10T07:24:12;20.90;;;10.25;;
35777;SDS011;21899;42.662;23.316;2023-05-10T07:26:38;15.60;;;8.90;;
35777;SDS011;21899;42.662;23.316;2023-05-10T07:29:03;14.90;;;8.73;;
35777;SDS011;21899;42.662;23.316;2023-05-10T07:31:28;14.95;;;9.05;;
35777;SDS011;21899;42.662;23.316;2023-05-10T07:33:54;16.15;;;9.45;;
35777;SDS011;21899;42.662;23.316;2023-05-10T07:36:19;14.27;;;9.13;;
35777;SDS011;21899;42.662;23.316;2023-05-10T07:38:45;14.20;;;8.57;;
35777;SDS011;21899;42.662;23.316;2023-05-10T07:41:13;23.33;;;9.48;;
35777;SDS011;21899;42.662;23.316;2023-05-10T07:43:39;12.18;;;8.70;;
35777;SDS011;21899;42.662;23.316;2023-05-10T07:46:04;16.00;;;9.80;;
35777;SDS011;21899;42.662;23.316;2023-05-10T07:48:30;18.73;;;10.30;;
35777;SDS011;21899;42.662;23.316;2023-05-10T07:50:56;18.02;;;9.52;;
35777;SDS011;21899;42.662;23.316;2023-05-10T07:53:21;19.27;;;10.10;;
35777;SDS011;21899;42.662;23.316;2023-05-10T07:55:50;16.30;;;10.23;;
35777;SDS011;21899;42.662;23.316;2023-05-10T07:58:19;17.58;;;10.25;;
35777;SDS011;21899;42.662;23.316;2023-05-10T08:00:45;19.27;;;10.23;;
35777;SDS011;21899;42.662;23.316;2023-05-10T08:03:10;15.20;;;9.65;;
35777;SDS011;21899;42.662;23.316;2023-05-10T08:05:35;17.60;;;9.68;;
35777;SDS011;21899;42.662;23.316;2023-05-10T08:08:01;15.30;;;9.82;;
35777;SDS011;21899;42.662;23.316;2023-05-10T08:10:26;19.70;;;10.55;;
35777;SDS011;21899;42.662;23.316;2023-05-10T08:12:52;20.27;;;10.75;;
35777;SDS011;21899;42.662;23.316;2023-05-10T08:15:17;16.83;;;11.98;;
35777;SDS011;21899;42.662;23.316;2023-05-10T08:17:42;20.20;;;11.45;;
35777;SDS011;21899;42.662;23.316;2023-05-10T08:20:08;22.35;;;11.57;;
35777;SDS011;21899;42.662;23.316;2023-05-10T08:22:34;16.70;;;11.25;;
35777;SDS011;21899;42.662;23.316;2023-05-10T08:25:00;15.85;;;9.50;;
35777;SDS011;21899;42.662;23.316;2023-05-10T08:27:26;14.85;;;9.50;;
35777;SDS011;21899;42.662;23.316;2023-05-10T08:29:51;15.75;;;9.75;;
35777;SDS011;21899;42.662;23.316;2023-05-10T08:32:17;19.45;;;8.95;;
35777;SDS011;21899;42.662;23.316;2023-05-10T08:34:42;15.00;;;9.88;;
35777;SDS011;21899;42.662;23.316;2023-05-10T08:37:08;13.25;;;9.48;;
35777;SDS011;21899;42.662;23.316;2023-05-10T08:39:34;20.75;;;10.63;;
35777;SDS011;21899;42.662;23.316;2023-05-10T08:42:01;16.15;;;9.05;;
35777;SDS011;21899;42.662;23.316;2023-05-10T08:44:29;15.55;;;9.93;;
35777;SDS011;21899;42.662;23.316;2023-05-10T08:46:57;17.92;;;10.57;;
35777;SDS011;21899;42.662;23.316;2023-05-10T08:49:24;13.15;;;10.10;;
35777;SDS011;21899;42.662;23.316;2023-05-10T08:51:54;15.35;;;9.75;;
35777;SDS011;21899;42.662;23.316;2023-05-10T08:54:21;16.95;;;11.25;;
35777;SDS011;21899;42.662;23.316;2023-05-10T08:56:47;16.52;;;10.32;;
35777;SDS011;21899;42.662;23.316;2023-05-10T08:59:12;13.65;;;9.38;;
35777;SDS011;21899;42.662;23.316;2023-05-10T09:01:39;19.00;;;12.55;;
35777;SDS011;21899;42.662;23.316;2023-05-10T09:04:07;20.60;;;12.18;;
35777;SDS011;21899;42.662;23.316;2023-05-10T09:06:32;14.82;;;9.90;;
35777;SDS011;21899;42.662;23.316;2023-05-10T09:08:59;17.10;;;10.48;;
35777;SDS011;21899;42.662;23.316;2023-05-10T09:11:24;16.35;;;10.52;;
35777;SDS011;21899;42.662;23.316;2023-05-10T09:13:50;14.10;;;11.00;;
35777;SDS011;21899;42.662;23.316;2023-05-10T09:16:17;17.77;;;11.65;;
35777;SDS011;21899;42.662;23.316;2023-05-10T09:18:42;16.63;;;11.02;;
35777;SDS011;21899;42.662;23.316;2023-05-10T09:21:08;15.70;;;11.48;;
35777;SDS011;21899;42.662;23.316;2023-05-10T09:23:35;14.57;;;10.75;;
35777;SDS011;21899;42.662;23.316;2023-05-10T09:26:07;16.38;;;11.00;;
35777;SDS011;21899;42.662;23.316;2023-05-10T09:28:54;15.65;;;10.30;;
35777;SDS011;21899;42.662;23.316;2023-05-10T09:31:19;15.98;;;11.30;;
35777;SDS011;21899;42.662;23.316;2023-05-10T09:33:45;17.23;;;11.23;;
35777;SDS011;21899;42.662;23.316;2023-05-10T09:36:12;15.90;;;11.60;;
35777;SDS011;21899;42.662;23.316;2023-05-10T09:38:47;14.55;;;9.30;;
35777;SDS011;21899;42.662;23.316;2023-05-10T09:43:43;14.68;;;11.25;;
35777;SDS011;21899;42.662;23.316;2023-05-10T09:46:09;16.30;;;11.07;;
35777;SDS011;21899;42.662;23.316;2023-05-10T09:48:39;18.08;;;10.77;;
35777;SDS011;21899;42.662;23.316;2023-05-10T09:51:07;17.23;;;10.63;;
35777;SDS011;21899;42.662;23.316;2023-05-10T09:53:33;15.25;;;9.82;;
35777;SDS011;21899;42.662;23.316;2023-05-10T09:55:58;24.38;;;12.57;;
35777;SDS011;21899;42.662;23.316;2023-05-10T09:58:24;19.33;;;11.55;;
35777;SDS011;21899;42.662;23.316;2023-05-10T10:00:49;21.02;;;12.05;;
35777;SDS011;21899;42.662;23.316;2023-05-10T10:03:21;24.20;;;11.05;;
35777;SDS011;21899;42.662;23.316;2023-05-10T10:05:47;20.20;;;9.77;;
35777;SDS011;21899;42.662;23.316;2023-05-10T10:08:14;25.63;;;10.48;;
35777;SDS011;21899;42.662;23.316;2023-05-10T10:10:40;25.50;;;11.52;;
35777;SDS011;21899;42.662;23.316;2023-05-10T10:13:06;21.90;;;9.68;;
35777;SDS011;21899;42.662;23.316;2023-05-10T10:15:33;28.50;;;10.35;;
35777;SDS011;21899;42.662;23.316;2023-05-10T10:17:59;20.92;;;8.68;;
35777;SDS011;21899;42.662;23.316;2023-05-10T10:20:25;21.00;;;9.13;;
35777;SDS011;21899;42.662;23.316;2023-05-10T10:22:51;14.30;;;8.88;;
35777;SDS011;21899;42.662;23.316;2023-05-10T10:25:17;20.20;;;8.68;;
35777;SDS011;21899;42.662;23.316;2023-05-10T10:35:28;18.40;;;8.35;;
35777;SDS011;21899;42.662;23.316;2023-05-10T10:37:55;20.83;;;9.15;;
35777;SDS011;21899;42.662;23.316;2023-05-10T10:40:28;27.02;;;9.07;;
35777;SDS011;21899;42.662;23.316;2023-05-10T10:42:56;28.90;;;10.27;;
35777;SDS011;21899;42.662;23.316;2023-05-10T10:45:23;17.83;;;9.15;;
35777;SDS011;21899;42.662;23.316;2023-05-10T10:50:47;13.77;;;7.40;;
35777;SDS011;21899;42.662;23.316;2023-05-10T10:53:12;10.38;;;7.57;;
35777;SDS011;21899;42.662;23.316;2023-05-10T10:55:45;15.77;;;8.05;;
35777;SDS011;21899;42.662;23.316;2023-05-10T10:58:29;20.85;;;9.90;;
35777;SDS011;21899;42.662;23.316;2023-05-10T11:01:13;15.93;;;8.60;;
35777;SDS011;21899;42.662;23.316;2023-05-10T11:03:40;16.93;;;8.93;;
35777;SDS011;21899;42.662;23.316;2023-05-10T11:06:28;18.70;;;8.75;;
35777;SDS011;21899;42.662;23.316;2023-05-10T11:08:57;24.90;;;8.75;;
35777;SDS011;21899;42.662;23.316;2023-05-10T11:11:23;19.38;;;7.28;;
35777;SDS011;21899;42.662;23.316;2023-05-10T11:13:48;26.58;;;9.38;;
35777;SDS011;21899;42.662;23.316;2023-05-10T11:16:15;9.88;;;6.53;;
35777;SDS011;21899;42.662;23.316;2023-05-10T11:21:51;14.52;;;7.50;;
35777;SDS011;21899;42.662;23.316;2023-05-10T11:24:35;23.70;;;7.95;;
35777;SDS011;21899;42.662;23.316;2023-05-10T11:27:01;19.35;;;7.78;;
35777;SDS011;21899;42.662;23.316;2023-05-10T11:29:26;15.27;;;8.30;;
35777;SDS011;21899;42.662;23.316;2023-05-10T11:31:52;15.18;;;8.18;;
35777;SDS011;21899;42.662;23.316;2023-05-10T11:34:25;19.10;;;8.40;;
35777;SDS011;21899;42.662;23.316;2023-05-10T11:37:03;10.68;;;7.15;;
35777;SDS011;21899;42.662;23.316;2023-05-10T11:39:29;12.80;;;8.18;;
35777;SDS011;21899;42.662;23.316;2023-05-10T11:41:56;18.48;;;7.95;;
35777;SDS011;21899;42.662;23.316;2023-05-10T11:44:22;10.75;;;6.85;;
35777;SDS011;21899;42.662;23.316;2023-05-10T11:46:48;12.57;;;8.73;;
35777;SDS011;21899;42.662;23.316;2023-05-10T11:49:14;14.15;;;7.50;;
35777;SDS011;21899;42.662;23.316;2023-05-10T11:51:39;14.68;;;7.30;;
35777;SDS011;21899;42.662;23.316;2023-05-10T11:54:07;14.02;;;7.32;;
35777;SDS011;21899;42.662;23.316;2023-05-10T11:56:34;11.93;;;7.60;;
35777;SDS011;21899;42.662;23.316;2023-05-10T11:59:00;13.40;;;8.10;;
35777;SDS011;21899;42.662;23.316;2023-05-10T12:01:27;19.95;;;8.52;;
35777;SDS011;21899;42.662;23.316;2023-05-10T12:03:54;11.98;;;6.88;;
35777;SDS011;21899;42.662;23.316;2023-05-10T12:06:25;31.13;;;16.38;;
35777;SDS011;21899;42.662;23.316;2023-05-10T12:08:52;13.60;;;8.73;;
35777;SDS011;21899;42.662;23.316;2023-05-10T12:11:18;12.18;;;8.25;;
35777;SDS011;21899;42.662;23.316;2023-05-10T12:13:44;12.73;;;8.32;;
35777;SDS011;21899;42.662;23.316;2023-05-10T12:16:14;12.88;;;8.23;;
35777;SDS011;21899;42.662;23.316;2023-05-10T12:18:47;12.20;;;8.63;;
35777;SDS011;21899;42.662;23.316;2023-05-10T12:21:13;13.90;;;7.60;;
35777;SDS011;21899;42.662;23.316;2023-05-10T12:23:40;16.13;;;8.52;;
35777;SDS011;21899;42.662;23.316;2023-05-10T12:26:08;16.13;;;8.75;;
35777;SDS011;21899;42.662;23.316;2023-05-10T12:28:35;13.93;;;9.05;;
35777;SDS011;21899;42.662;23.316;2023-05-10T12:31:01;18.63;;;8.20;;
35777;SDS011;21899;42.662;23.316;2023-05-10T12:33:27;13.93;;;8.48;;
35777;SDS011;21899;42.662;23.316;2023-05-10T12:36:00;13.52;;;8.98;;
35777;SDS011;21899;42.662;23.316;2023-05-10T12:40:51;12.85;;;8.45;;
35777;SDS011;21899;42.662;23.316;2023-05-10T12:43:16;15.73;;;9.77;;
35777;SDS011;21899;42.662;23.316;2023-05-10T12:45:41;16.30;;;8.07;;
35777;SDS011;21899;42.662;23.316;2023-05-10T12:48:07;16.95;;;8.80;;
35777;SDS011;21899;42.662;23.316;2023-05-10T12:50:32;18.08;;;9.50;;
35777;SDS011;21899;42.662;23.316;2023-05-10T12:52:58;12.93;;;9.13;;
35777;SDS011;21899;42.662;23.316;2023-05-10T12:55:23;12.45;;;8.35;;
35777;SDS011;21899;42.662;23.316;2023-05-10T12:57:48;11.52;;;8.50;;
35777;SDS011;21899;42.662;23.316;2023-05-10T13:00:14;13.27;;;9.00;;
35777;SDS011;21899;42.662;23.316;2023-05-10T13:02:40;16.27;;;9.73;;
35777;SDS011;21899;42.662;23.316;2023-05-10T13:05:05;15.43;;;8.82;;
35777;SDS011;21899;42.662;23.316;2023-05-10T13:07:31;11.85;;;8.55;;
35777;SDS011;21899;42.662;23.316;2023-05-10T13:09:56;14.93;;;8.98;;
35777;SDS011;21899;42.662;23.316;2023-05-10T13:12:22;13.27;;;8.68;;
35777;SDS011;21899;42.662;23.316;2023-05-10T13:14:47;11.25;;;8.52;;
35777;SDS011;21899;42.662;23.316;2023-05-10T13:17:12;13.80;;;8.65;;
35777;SDS011;21899;42.662;23.316;2023-05-10T13:19:38;16.55;;;9.55;;
35777;SDS011;21899;42.662;23.316;2023-05-10T13:22:03;15.88;;;9.32;;
35777;SDS011;21899;42.662;23.316;2023-05-10T13:24:29;14.35;;;9.98;;
35777;SDS011;21899;42.662;23.316;2023-05-10T13:26:54;17.05;;;9.50;;
35777;SDS011;21899;42.662;23.316;2023-05-10T13:29:20;13.23;;;8.43;;
35777;SDS011;21899;42.662;23.316;2023-05-10T13:31:47;12.98;;;8.52;;
35777;SDS011;21899;42.662;23.316;2023-05-10T13:34:12;11.95;;;8.23;;
35777;SDS011;21899;42.662;23.316;2023-05-10T13:36:38;13.15;;;8.77;;
35777;SDS011;21899;42.662;23.316;2023-05-10T13:39:03;14.00;;;8.15;;
35777;SDS011;21899;42.662;23.316;2023-05-10T13:41:30;13.38;;;8.75;;
35777;SDS011;21899;42.662;23.316;2023-05-10T13:43:55;14.90;;;9.50;;
35777;SDS011;21899;42.662;23.316;2023-05-10T13:46:21;13.23;;;8.10;;
35777;SDS011;21899;42.662;23.316;2023-05-10T13:48:46;11.82;;;8.70;;
35777;SDS011;21899;42.662;23.316;2023-05-10T13:51:12;12.77;;;9.07;;
35777;SDS011;21899;42.662;23.316;2023-05-10T13:53:37;12.38;;;9.10;;
35777;SDS011;21899;42.662;23.316;2023-05-10T13:56:03;12.18;;;8.55;;
35777;SDS011;21899;42.662;23.316;2023-05-10T13:58:28;14.90;;;9.45;;
35777;SDS011;21899;42.662;23.316;2023-05-10T14:00:54;12.75;;;9.18;;
35777;SDS011;21899;42.662;23.316;2023-05-10T14:03:19;17.35;;;9.43;;
35777;SDS011;21899;42.662;23.316;2023-05-10T14:05:45;15.25;;;10.05;;
35777;SDS011;21899;42.662;23.316;2023-05-10T14:08:10;13.57;;;8.73;;
35777;SDS011;21899;42.662;23.316;2023-05-10T14:10:38;14.40;;;9.55;;
35777;SDS011;21899;42.662;23.316;2023-05-10T14:13:04;13.00;;;9.18;;
35777;SDS011;21899;42.662;23.316;2023-05-10T14:15:30;16.67;;;8.93;;
35777;SDS011;21899;42.662;23.316;2023-05-10T14:17:55;13.40;;;9.02;;
35777;SDS011;21899;42.662;23.316;2023-05-10T14:20:21;14.77;;;9.38;;
35777;SDS011;21899;42.662;23.316;2023-05-10T14:22:46;12.73;;;8.68;;
35777;SDS011;21899;42.662;23.316;2023-05-10T14:25:11;16.48;;;9.52;;
35777;SDS011;21899;42.662;23.316;2023-05-10T14:27:38;12.32;;;8.65;;
35777;SDS011;21899;42.662;23.316;2023-05-10T14:30:03;16.45;;;8.80;;
35777;SDS011;21899;42.662;23.316;2023-05-10T14:32:29;16.63;;;9.38;;
35777;SDS011;21899;42.662;23.316;2023-05-10T14:34:56;13.02;;;9.10;;
35777;SDS011;21899;42.662;23.316;2023-05-10T14:37:22;15.75;;;9.15;;
35777;SDS011;21899;42.662;23.316;2023-05-10T14:39:47;16.73;;;8.52;;
35777;SDS011;21899;42.662;23.316;2023-05-10T14:42:13;13.85;;;9.60;;
35777;SDS011;21899;42.662;23.316;2023-05-10T14:44:38;17.17;;;8.55;;
35777;SDS011;21899;42.662;23.316;2023-05-10T14:47:03;15.68;;;8.48;;
35777;SDS011;21899;42.662;23.316;2023-05-10T14:49:29;15.30;;;8.95;;
35777;SDS011;21899;42.662;23.316;2023-05-10T14:51:54;12.25;;;9.25;;
35777;SDS011;21899;42.662;23.316;2023-05-10T14:54:19;12.80;;;8.55;;
35777;SDS011;21899;42.662;23.316;2023-05-10T14:56:45;14.77;;;9.70;;
35777;SDS011;21899;42.662;23.316;2023-05-10T14:59:11;15.75;;;8.43;;